Time;durP1;ratioP1;P1;durP2;ratioP2;P2;SDS_P1;SDS_P2;PMS_P1;PMS_P2;Temp;Humidity;BMP_temperature;BMP_pressure;BME280_temperature;BME280_humidity;BME280_pressure;Samples;Min_cycle;Max_cycle;Signal;HPM_P1;HPM_P2
2021/05/09 00:00:16;;;;;;;11.15;5.30;;;;;;;;;;1474058;40;20425;-79
2021/05/09 00:01:21;;;;;;;10.15;4.88;;;;;;;;;;1470133;40;20412;-80
2021/05/09 00:02:25;;;;;;;9.20;5.43;;;;;;;;;;1469260;40;20414;-80
2021/05/09 00:03:31;;;;;;;8.43;5.05;;;;;;;;;;1471158;40;20405;-80
2021/05/09 00:04:36;;;;;;;5.63;5.00;;;;;;;;;;1470540;40;20405;-79
2021/05/09 00:05:40;;;;;;;9.00;5.20;;;;;;;;;;1472552;40;20392;-80
2021/05/09 00:06:41;;;;;;;9.05;5.45;;;;;;;;;;1474470;40;20765;-80
2021/05/09 00:07:47;;;;;;;9.88;5.60;;;;;;;;;;1470599;40;20469;-80
2021/05/09 00:08:51;;;;;;;8.02;5.22;;;;;;;;;;1475010;40;20473;-80
2021/05/09 00:09:52;;;;;;;9.20;5.35;;;;;;;;;;1469542;40;20478;-80
2021/05/09 00:10:53;;;;;;;6.13;4.85;;;;;;;;;;1468150;40;20426;-80
2021/05/09 00:11:54;;;;;;;7.05;5.00;;;;;;;;;;1474964;40;20788;-79
2021/05/09 00:12:55;;;;;;;8.55;5.35;;;;;;;;;;1474188;40;20427;-79
2021/05/09 00:13:57;;;;;;;10.13;5.55;;;;;;;;;;1474173;40;20404;-80
2021/05/09 00:14:59;;;;;;;8.85;5.13;;;;;;;;;;1478285;40;20406;-80
2021/05/09 00:16:05;;;;;;;8.25;5.32;;;;;;;;;;1474008;40;20412;-79
2021/05/09 00:17:07;;;;;;;8.70;5.30;;;;;;;;;;1469753;40;20410;-80
2021/05/09 00:18:13;;;;;;;11.07;4.70;;;;;;;;;;1476236;40;20426;-80
2021/05/09 00:19:14;;;;;;;9.40;5.05;;;;;;;;;;1477499;40;20517;-80
2021/05/09 00:20:15;;;;;;;12.35;5.60;;;;;;;;;;1470005;40;20652;-80
2021/05/09 00:21:19;;;;;;;11.77;5.45;;;;;;;;;;1473922;40;20411;-80
2021/05/09 00:22:21;;;;;;;8.82;6.00;;;;;;;;;;1474145;40;20395;-80
2021/05/09 00:23:27;;;;;;;10.23;6.20;;;;;;;;;;1468647;40;20405;-80
2021/05/09 00:24:31;;;;;;;8.75;5.45;;;;;;;;;;1475206;40;20792;-79
2021/05/09 00:25:33;;;;;;;6.03;4.80;;;;;;;;;;1480203;40;20397;-79
2021/05/09 00:26:34;;;;;;;9.10;5.78;;;;;;;;;;1474129;40;20784;-80
2021/05/09 00:27:36;;;;;;;9.27;5.68;;;;;;;;;;1473510;40;20439;-80
2021/05/09 00:28:37;;;;;;;8.73;5.32;;;;;;;;;;1478251;40;20491;-80
2021/05/09 00:29:41;;;;;;;7.90;5.28;;;;;;;;;;1477817;40;20475;-79
2021/05/09 00:30:43;;;;;;;7.88;5.25;;;;;;;;;;1477228;40;20676;-79
2021/05/09 00:31:44;;;;;;;11.13;5.07;;;;;;;;;;1478573;40;20417;-80
2021/05/09 00:32:47;;;;;;;10.80;5.45;;;;;;;;;;1478376;40;20963;-79
2021/05/09 00:33:49;;;;;;;8.32;4.82;;;;;;;;;;1478058;40;20414;-80
2021/05/09 00:34:50;;;;;;;8.05;5.10;;;;;;;;;;1474018;40;20416;-80
2021/05/09 00:35:54;;;;;;;12.85;5.63;;;;;;;;;;1469004;40;20402;-79
2021/05/09 00:36:57;;;;;;;8.52;4.90;;;;;;;;;;1474243;40;20744;-80
2021/05/09 00:37:59;;;;;;;7.95;5.18;;;;;;;;;;1477836;40;20427;-80
2021/05/09 00:39:00;;;;;;;8.80;5.20;;;;;;;;;;1478173;40;20414;-80
2021/05/09 00:40:01;;;;;;;9.48;5.10;;;;;;;;;;1477294;40;20402;-80
2021/05/09 00:41:02;;;;;;;6.97;4.90;;;;;;;;;;1476433;40;20410;-80
2021/05/09 00:42:05;;;;;;;8.68;4.82;;;;;;;;;;1476826;40;20411;-80
2021/05/09 00:43:06;;;;;;;9.18;5.50;;;;;;;;;;1473469;40;20397;-80
2021/05/09 00:44:13;;;;;;;7.70;5.10;;;;;;;;;;1473775;40;20881;-79
2021/05/09 00:45:14;;;;;;;7.88;5.32;;;;;;;;;;1470019;40;20417;-79
2021/05/09 00:46:15;;;;;;;10.82;5.20;;;;;;;;;;1471345;40;20419;-80
2021/05/09 00:47:17;;;;;;;8.48;6.07;;;;;;;;;;1470073;40;20390;-80
2021/05/09 00:48:18;;;;;;;7.15;6.00;;;;;;;;;;1465689;40;20407;-80
2021/05/09 00:49:20;;;;;;;9.27;6.55;;;;;;;;;;1466031;40;20434;-80
2021/05/09 00:50:21;;;;;;;7.72;5.78;;;;;;;;;;1470003;40;20417;-80
2021/05/09 00:51:22;;;;;;;10.85;6.32;;;;;;;;;;1478752;40;20492;-80
2021/05/09 00:52:25;;;;;;;11.30;6.80;;;;;;;;;;1478350;40;20405;-80
2021/05/09 00:53:29;;;;;;;8.32;5.97;;;;;;;;;;1475926;40;20820;-81
2021/05/09 00:54:38;;;;;;;9.43;6.80;;;;;;;;;;1469500;40;20398;-79
2021/05/09 00:55:43;;;;;;;9.88;6.97;;;;;;;;;;1470040;40;20831;-79
2021/05/09 00:56:45;;;;;;;8.25;6.50;;;;;;;;;;1478491;40;20537;-80
2021/05/09 00:57:47;;;;;;;10.27;6.13;;;;;;;;;;1478661;40;20437;-80
2021/05/09 00:58:51;;;;;;;10.00;6.70;;;;;;;;;;1478749;40;20941;-80
2021/05/09 00:59:53;;;;;;;10.40;6.80;;;;;;;;;;1478565;40;20522;-80
2021/05/09 01:00:58;;;;;;;12.73;6.82;;;;;;;;;;1473857;40;20543;-81
2021/05/09 01:02:00;;;;;;;7.72;5.88;;;;;;;;;;1473677;40;20825;-80
2021/05/09 01:03:08;;;;;;;8.30;6.22;;;;;;;;;;1469649;40;20457;-80
2021/05/09 01:04:12;;;;;;;12.27;6.05;;;;;;;;;;1474810;40;20816;-80
2021/05/09 01:05:16;;;;;;;10.30;6.38;;;;;;;;;;1477627;40;20800;-80
2021/05/09 01:06:17;;;;;;;6.40;5.80;;;;;;;;;;1478331;40;21173;-80
2021/05/09 01:07:22;;;;;;;7.50;5.95;;;;;;;;;;1477889;40;20391;-79
2021/05/09 01:08:24;;;;;;;8.38;6.65;;;;;;;;;;1469606;40;20408;-80
2021/05/09 01:09:25;;;;;;;10.02;5.88;;;;;;;;;;1474066;40;20430;-79
2021/05/09 01:10:29;;;;;;;7.10;5.72;;;;;;;;;;1473952;40;20400;-80
2021/05/09 01:11:30;;;;;;;7.70;5.75;;;;;;;;;;1479234;40;20410;-81
2021/05/09 01:12:32;;;;;;;10.05;6.05;;;;;;;;;;1481108;40;20419;-80
2021/05/09 01:13:34;;;;;;;7.45;5.68;;;;;;;;;;1476945;40;20426;-80
2021/05/09 01:14:36;;;;;;;6.70;6.05;;;;;;;;;;1465948;40;20678;-79
2021/05/09 01:15:42;;;;;;;8.35;6.25;;;;;;;;;;1465951;40;20753;-79
2021/05/09 01:16:43;;;;;;;6.63;5.55;;;;;;;;;;1470066;40;20405;-80
2021/05/09 01:17:45;;;;;;;9.45;5.95;;;;;;;;;;1475132;40;20430;-79
2021/05/09 01:18:46;;;;;;;9.25;6.03;;;;;;;;;;1478225;40;20405;-80
2021/05/09 01:19:47;;;;;;;6.95;6.20;;;;;;;;;;1478166;40;20469;-79
2021/05/09 01:20:49;;;;;;;7.75;5.97;;;;;;;;;;1477114;40;20834;-79
2021/05/09 01:21:50;;;;;;;11.07;5.77;;;;;;;;;;1477721;40;20500;-79
2021/05/09 01:22:53;;;;;;;7.20;5.88;;;;;;;;;;1482719;40;20475;-79
2021/05/09 01:23:54;;;;;;;9.43;5.80;;;;;;;;;;1482524;40;20431;-79
2021/05/09 01:24:56;;;;;;;8.20;5.80;;;;;;;;;;1482797;40;20440;-80
2021/05/09 01:25:57;;;;;;;7.07;6.03;;;;;;;;;;1477912;40;20423;-80
2021/05/09 01:26:58;;;;;;;6.57;5.50;;;;;;;;;;1477215;40;20513;-79
2021/05/09 01:27:59;;;;;;;8.40;5.68;;;;;;;;;;1473733;40;20419;-79
2021/05/09 01:29:01;;;;;;;8.18;6.15;;;;;;;;;;1476455;40;20487;-79
2021/05/09 01:30:07;;;;;;;10.45;6.28;;;;;;;;;;1473799;40;20415;-80
2021/05/09 01:31:08;;;;;;;7.50;5.95;;;;;;;;;;1477909;40;20660;-79
2021/05/09 01:32:10;;;;;;;10.73;6.47;;;;;;;;;;1466006;40;20415;-79
2021/05/09 01:33:12;;;;;;;9.57;6.20;;;;;;;;;;1469399;40;20397;-80
2021/05/09 01:34:16;;;;;;;9.25;6.35;;;;;;;;;;1473768;40;20404;-80
2021/05/09 01:35:17;;;;;;;8.85;6.68;;;;;;;;;;1470210;40;20787;-79
2021/05/09 01:36:21;;;;;;;7.75;6.43;;;;;;;;;;1473899;40;20502;-79
2021/05/09 01:37:22;;;;;;;8.95;7.15;;;;;;;;;;1473999;40;20442;-79
2021/05/09 01:38:23;;;;;;;6.75;5.60;;;;;;;;;;1465595;40;20427;-78
2021/05/09 01:39:25;;;;;;;12.20;6.43;;;;;;;;;;1469948;40;20450;-79
2021/05/09 01:40:26;;;;;;;8.43;6.47;;;;;;;;;;1474951;40;20512;-79
2021/05/09 01:41:27;;;;;;;12.20;7.00;;;;;;;;;;1465513;40;20411;-79
2021/05/09 01:42:29;;;;;;;10.95;6.20;;;;;;;;;;1472439;40;20455;-79
2021/05/09 01:43:36;;;;;;;6.90;6.03;;;;;;;;;;1474137;40;20392;-80
2021/05/09 01:44:51;;;;;;;7.28;6.07;;;;;;;;;;1474322;40;20420;-80
2021/05/09 01:45:52;;;;;;;8.00;6.23;;;;;;;;;;1478718;40;20553;-80
2021/05/09 01:46:53;;;;;;;10.75;6.05;;;;;;;;;;1478284;40;21147;-79
2021/05/09 01:47:57;;;;;;;9.25;6.32;;;;;;;;;;1478259;40;20413;-79
2021/05/09 01:48:58;;;;;;;10.13;6.05;;;;;;;;;;1478311;40;20691;-80
2021/05/09 01:49:59;;;;;;;7.20;5.20;;;;;;;;;;1478380;40;20410;-80
2021/05/09 01:51:00;;;;;;;6.80;5.88;;;;;;;;;;1473340;40;20669;-81
2021/05/09 01:52:01;;;;;;;9.25;6.47;;;;;;;;;;1469845;40;20405;-79
2021/05/09 01:53:03;;;;;;;10.10;6.38;;;;;;;;;;1472880;40;20427;-79
2021/05/09 01:54:04;;;;;;;7.43;6.00;;;;;;;;;;1478459;40;20498;-80
2021/05/09 01:55:08;;;;;;;10.60;5.93;;;;;;;;;;1478945;40;20407;-80
2021/05/09 01:56:14;;;;;;;8.65;6.30;;;;;;;;;;1470542;40;20390;-80
2021/05/09 01:57:15;;;;;;;7.72;6.60;;;;;;;;;;1472293;40;20412;-80
2021/05/09 01:58:17;;;;;;;7.97;5.60;;;;;;;;;;1473590;40;20456;-79
2021/05/09 01:59:18;;;;;;;8.77;6.28;;;;;;;;;;1473966;40;20392;-80
2021/05/09 02:00:21;;;;;;;10.43;6.13;;;;;;;;;;1478403;40;20633;-80
2021/05/09 02:01:23;;;;;;;10.25;5.63;;;;;;;;;;1471746;40;20421;-80
2021/05/09 02:02:28;;;;;;;9.55;5.82;;;;;;;;;;1466026;40;20407;-80
2021/05/09 02:03:30;;;;;;;8.48;5.28;;;;;;;;;;1470685;40;20487;-80
2021/05/09 02:04:31;;;;;;;8.30;5.97;;;;;;;;;;1474122;40;20451;-81
2021/05/09 02:05:32;;;;;;;9.02;5.68;;;;;;;;;;1473402;40;20392;-81
2021/05/09 02:06:33;;;;;;;9.55;6.30;;;;;;;;;;1477817;40;20398;-81
2021/05/09 02:07:37;;;;;;;9.30;5.65;;;;;;;;;;1473898;40;20713;-80
2021/05/09 02:08:38;;;;;;;9.32;5.82;;;;;;;;;;1478107;40;20519;-80
2021/05/09 02:09:40;;;;;;;7.00;5.30;;;;;;;;;;1482488;40;20774;-80
2021/05/09 02:10:44;;;;;;;7.78;5.82;;;;;;;;;;1470063;40;20771;-80
2021/05/09 02:11:45;;;;;;;12.50;5.95;;;;;;;;;;1465995;40;20408;-79
2021/05/09 02:12:46;;;;;;;7.90;5.40;;;;;;;;;;1478089;40;20422;-80
2021/05/09 02:13:47;;;;;;;12.45;6.15;;;;;;;;;;1473894;40;20448;-80
2021/05/09 02:14:48;;;;;;;9.10;6.00;;;;;;;;;;1470059;40;20404;-80
2021/05/09 02:15:49;;;;;;;8.60;5.88;;;;;;;;;;1465418;40;20800;-81
2021/05/09 02:16:53;;;;;;;7.82;5.90;;;;;;;;;;1465681;40;20443;-80
2021/05/09 02:17:55;;;;;;;10.82;5.90;;;;;;;;;;1469973;40;20493;-80
2021/05/09 02:18:56;;;;;;;14.70;6.32;;;;;;;;;;1474190;40;20952;-80
2021/05/09 02:19:57;;;;;;;7.27;5.53;;;;;;;;;;1478184;40;20618;-79
2021/05/09 02:20:58;;;;;;;8.10;6.55;;;;;;;;;;1473742;40;20808;-79
2021/05/09 02:21:59;;;;;;;8.55;5.78;;;;;;;;;;1471552;40;20422;-79
2021/05/09 02:23:02;;;;;;;9.40;5.55;;;;;;;;;;1476307;40;20439;-80
2021/05/09 02:24:05;;;;;;;11.30;6.00;;;;;;;;;;1474726;40;20433;-80
2021/05/09 02:25:08;;;;;;;9.27;5.82;;;;;;;;;;1480271;40;20403;-79
2021/05/09 02:26:09;;;;;;;9.43;5.65;;;;;;;;;;1479600;40;20471;-80
2021/05/09 02:27:10;;;;;;;9.43;5.75;;;;;;;;;;1480151;40;20404;-80
2021/05/09 02:28:11;;;;;;;7.35;5.40;;;;;;;;;;1481892;40;20454;-79
2021/05/09 02:29:12;;;;;;;11.68;5.40;;;;;;;;;;1481153;40;20409;-79
2021/05/09 02:30:14;;;;;;;7.25;5.55;;;;;;;;;;1480396;40;20407;-79
2021/05/09 02:31:15;;;;;;;8.30;5.38;;;;;;;;;;1479644;40;20426;-79
2021/05/09 02:32:17;;;;;;;7.28;5.03;;;;;;;;;;1474379;40;20701;-79
2021/05/09 02:33:18;;;;;;;10.15;5.82;;;;;;;;;;1474391;40;20403;-80
2021/05/09 02:34:20;;;;;;;8.18;5.70;;;;;;;;;;1478189;40;20415;-80
2021/05/09 02:35:21;;;;;;;9.13;5.43;;;;;;;;;;1471765;40;20402;-80
2021/05/09 02:36:24;;;;;;;9.20;5.70;;;;;;;;;;1474367;40;20419;-80
2021/05/09 02:37:26;;;;;;;10.02;5.60;;;;;;;;;;1470025;40;20414;-79
2021/05/09 02:38:28;;;;;;;9.85;5.80;;;;;;;;;;1470243;40;20393;-80
2021/05/09 02:39:29;;;;;;;8.00;5.65;;;;;;;;;;1474031;40;20662;-80
2021/05/09 02:40:30;;;;;;;7.55;5.35;;;;;;;;;;1474468;40;20439;-80
2021/05/09 02:41:32;;;;;;;8.38;5.57;;;;;;;;;;1477843;40;20660;-80
2021/05/09 02:42:35;;;;;;;11.25;5.40;;;;;;;;;;1470024;40;20421;-81
2021/05/09 02:43:37;;;;;;;7.57;5.40;;;;;;;;;;1470161;40;20398;-81
2021/05/09 02:44:38;;;;;;;11.88;5.68;;;;;;;;;;1473748;40;20424;-81
2021/05/09 02:45:39;;;;;;;8.10;5.40;;;;;;;;;;1478383;40;20421;-80
2021/05/09 02:46:41;;;;;;;7.32;4.88;;;;;;;;;;1481560;40;20396;-80
2021/05/09 02:47:42;;;;;;;6.35;4.93;;;;;;;;;;1479664;40;20429;-80
2021/05/09 02:48:43;;;;;;;9.10;5.32;;;;;;;;;;1478112;40;20833;-79
2021/05/09 02:49:44;;;;;;;9.40;5.30;;;;;;;;;;1469573;40;20406;-80
2021/05/09 02:50:45;;;;;;;5.82;4.88;;;;;;;;;;1465693;40;20404;-80
2021/05/09 02:51:49;;;;;;;8.43;5.20;;;;;;;;;;1473857;40;20520;-79
2021/05/09 02:52:50;;;;;;;8.63;5.50;;;;;;;;;;1477393;40;20406;-80
2021/05/09 02:53:51;;;;;;;10.55;5.28;;;;;;;;;;1477981;40;20430;-79
2021/05/09 02:54:53;;;;;;;10.98;4.97;;;;;;;;;;1478593;40;20395;-80
2021/05/09 02:55:54;;;;;;;8.57;4.47;;;;;;;;;;1475975;40;20806;-80
2021/05/09 02:56:57;;;;;;;12.25;5.57;;;;;;;;;;1477576;40;20500;-80
2021/05/09 02:57:58;;;;;;;7.47;5.22;;;;;;;;;;1469459;40;20416;-80
2021/05/09 02:59:01;;;;;;;7.57;5.25;;;;;;;;;;1469824;40;20409;-80
2021/05/09 03:00:05;;;;;;;6.97;5.57;;;;;;;;;;1477517;40;20425;-80
2021/05/09 03:01:09;;;;;;;8.90;5.07;;;;;;;;;;1471045;40;20699;-79
2021/05/09 03:02:14;;;;;;;7.05;4.80;;;;;;;;;;1474679;40;20400;-79
2021/05/09 03:03:20;;;;;;;10.93;5.10;;;;;;;;;;1473733;40;20401;-79
2021/05/09 03:04:25;;;;;;;6.97;4.68;;;;;;;;;;1474676;40;20392;-80
2021/05/09 03:05:29;;;;;;;6.10;4.93;;;;;;;;;;1473238;40;20384;-80
2021/05/09 03:06:33;;;;;;;8.23;4.50;;;;;;;;;;1475139;40;20530;-80
2021/05/09 03:07:34;;;;;;;10.57;5.57;;;;;;;;;;1478390;40;20402;-80
2021/05/09 03:08:35;;;;;;;6.40;4.82;;;;;;;;;;1474572;40;20523;-81
2021/05/09 03:09:36;;;;;;;10.27;5.03;;;;;;;;;;1470487;40;20402;-81
2021/05/09 03:10:37;;;;;;;7.65;4.68;;;;;;;;;;1475837;40;20410;-81
2021/05/09 03:11:40;;;;;;;6.05;4.18;;;;;;;;;;1474403;40;20456;-80
2021/05/09 03:12:44;;;;;;;8.32;4.78;;;;;;;;;;1463743;40;20424;-79
2021/05/09 03:13:45;;;;;;;8.80;5.07;;;;;;;;;;1466879;40;20763;-80
2021/05/09 03:14:46;;;;;;;11.82;5.22;;;;;;;;;;1470129;40;20406;-79
2021/05/09 03:15:47;;;;;;;7.65;4.80;;;;;;;;;;1470243;40;20413;-80
2021/05/09 03:16:51;;;;;;;8.52;4.45;;;;;;;;;;1473900;40;20775;-80
2021/05/09 03:17:52;;;;;;;7.95;4.50;;;;;;;;;;1470355;40;20449;-80
2021/05/09 03:18:53;;;;;;;8.25;5.32;;;;;;;;;;1474078;40;20407;-80
2021/05/09 03:19:55;;;;;;;9.55;5.78;;;;;;;;;;1479031;40;20558;-80
2021/05/09 03:20:56;;;;;;;8.93;4.90;;;;;;;;;;1478050;40;20430;-80
2021/05/09 03:21:58;;;;;;;8.05;4.68;;;;;;;;;;1478438;40;20425;-80
2021/05/09 03:22:59;;;;;;;7.77;4.77;;;;;;;;;;1474556;40;20570;-79
2021/05/09 03:24:00;;;;;;;9.38;4.60;;;;;;;;;;1478248;40;20663;-79
2021/05/09 03:25:02;;;;;;;9.77;5.07;;;;;;;;;;1481632;40;20420;-80
2021/05/09 03:26:04;;;;;;;11.48;5.00;;;;;;;;;;1481096;40;20407;-80
2021/05/09 03:27:07;;;;;;;11.05;5.43;;;;;;;;;;1473938;40;20945;-80
2021/05/09 03:28:08;;;;;;;8.52;4.82;;;;;;;;;;1474402;40;20414;-80
2021/05/09 03:29:10;;;;;;;8.95;4.88;;;;;;;;;;1477742;40;20454;-79
2021/05/09 03:30:12;;;;;;;7.18;4.63;;;;;;;;;;1478452;40;20409;-79
2021/05/09 03:31:15;;;;;;;9.45;5.30;;;;;;;;;;1476900;40;20452;-79
2021/05/09 03:32:17;;;;;;;7.45;4.72;;;;;;;;;;1478452;40;20967;-79
2021/05/09 03:33:18;;;;;;;9.93;4.87;;;;;;;;;;1477979;40;20590;-79
2021/05/09 03:34:19;;;;;;;10.88;5.20;;;;;;;;;;1474653;40;20404;-79
2021/05/09 03:35:23;;;;;;;8.90;4.43;;;;;;;;;;1478136;40;20539;-80
2021/05/09 03:36:27;;;;;;;8.30;4.75;;;;;;;;;;1474025;40;20866;-80
2021/05/09 03:37:28;;;;;;;11.77;5.03;;;;;;;;;;1473039;40;20427;-79
2021/05/09 03:38:29;;;;;;;7.17;4.50;;;;;;;;;;1478976;40;20510;-80
2021/05/09 03:39:31;;;;;;;8.82;4.70;;;;;;;;;;1479064;40;20661;-80
2021/05/09 03:40:32;;;;;;;10.43;5.07;;;;;;;;;;1476678;40;20413;-80
2021/05/09 03:41:34;;;;;;;6.47;4.53;;;;;;;;;;1474717;40;20392;-79
2021/05/09 03:42:39;;;;;;;9.30;5.25;;;;;;;;;;1474537;40;20401;-81
2021/05/09 03:43:40;;;;;;;8.20;5.20;;;;;;;;;;1474355;40;20481;-80
2021/05/09 03:44:42;;;;;;;8.55;4.78;;;;;;;;;;1478556;40;20790;-80
2021/05/09 03:45:43;;;;;;;8.43;4.30;;;;;;;;;;1478356;40;20776;-80
2021/05/09 03:46:44;;;;;;;9.02;4.90;;;;;;;;;;1474453;40;20416;-80
2021/05/09 03:47:45;;;;;;;7.47;4.28;;;;;;;;;;1478129;40;20421;-79
2021/05/09 03:48:47;;;;;;;8.70;4.57;;;;;;;;;;1477955;40;20398;-80
2021/05/09 03:49:48;;;;;;;6.55;4.20;;;;;;;;;;1469610;40;20417;-80
2021/05/09 03:50:49;;;;;;;6.15;4.75;;;;;;;;;;1470409;40;20436;-80
2021/05/09 03:51:53;;;;;;;10.77;4.15;;;;;;;;;;1474031;40;20427;-80
2021/05/09 03:52:57;;;;;;;7.20;5.03;;;;;;;;;;1465703;40;20419;-80
2021/05/09 03:53:59;;;;;;;7.10;4.40;;;;;;;;;;1470343;40;20950;-80
2021/05/09 03:55:03;;;;;;;8.82;4.88;;;;;;;;;;1474046;40;20448;-79
2021/05/09 03:56:04;;;;;;;10.93;5.32;;;;;;;;;;1472883;40;20797;-79
2021/05/09 03:57:06;;;;;;;5.28;3.80;;;;;;;;;;1478355;40;20504;-80
2021/05/09 03:58:09;;;;;;;8.65;4.53;;;;;;;;;;1477819;40;20419;-80
2021/05/09 03:59:10;;;;;;;8.25;4.82;;;;;;;;;;1470231;40;20413;-79
2021/05/09 04:00:13;;;;;;;5.03;4.25;;;;;;;;;;1474089;40;20401;-79
2021/05/09 04:01:17;;;;;;;5.40;3.97;;;;;;;;;;1467442;40;20535;-80
2021/05/09 04:02:22;;;;;;;6.10;4.60;;;;;;;;;;1462430;40;20471;-80
2021/05/09 04:03:30;;;;;;;6.78;4.22;;;;;;;;;;1474768;40;21296;-80
2021/05/09 04:04:34;;;;;;;6.18;4.18;;;;;;;;;;1474399;40;20392;-80
2021/05/09 04:05:35;;;;;;;5.82;3.80;;;;;;;;;;1478423;40;20807;-80
2021/05/09 04:06:37;;;;;;;8.20;4.05;;;;;;;;;;1483122;40;20855;-79
2021/05/09 04:07:38;;;;;;;7.68;4.43;;;;;;;;;;1478557;40;20422;-80
2021/05/09 04:08:39;;;;;;;7.70;4.03;;;;;;;;;;1470053;40;20410;-81
2021/05/09 04:09:43;;;;;;;8.43;5.00;;;;;;;;;;1470620;40;20398;-80
2021/05/09 04:10:44;;;;;;;8.43;4.35;;;;;;;;;;1472381;40;20412;-80
2021/05/09 04:11:45;;;;;;;7.38;4.65;;;;;;;;;;1474311;40;20412;-80
2021/05/09 04:12:46;;;;;;;8.67;3.70;;;;;;;;;;1482784;40;20473;-80
2021/05/09 04:13:49;;;;;;;10.95;5.05;;;;;;;;;;1478237;40;20450;-79
2021/05/09 04:14:53;;;;;;;7.82;4.47;;;;;;;;;;1477113;40;20488;-80
2021/05/09 04:15:54;;;;;;;7.25;4.40;;;;;;;;;;1478567;40;20402;-79
2021/05/09 04:16:56;;;;;;;8.45;4.45;;;;;;;;;;1482208;40;20833;-80
2021/05/09 04:18:00;;;;;;;8.23;4.00;;;;;;;;;;1473956;40;20423;-80
2021/05/09 04:19:02;;;;;;;7.00;4.53;;;;;;;;;;1472759;40;20415;-80
2021/05/09 04:20:07;;;;;;;8.35;4.20;;;;;;;;;;1470129;40;20386;-80
2021/05/09 04:21:12;;;;;;;9.95;4.50;;;;;;;;;;1466591;40;20435;-80
2021/05/09 04:22:14;;;;;;;7.40;4.65;;;;;;;;;;1474101;40;20431;-80
2021/05/09 04:23:19;;;;;;;7.65;3.78;;;;;;;;;;1475776;40;20395;-79
2021/05/09 04:24:22;;;;;;;8.23;3.83;;;;;;;;;;1474213;40;20399;-79
2021/05/09 04:25:23;;;;;;;6.45;4.20;;;;;;;;;;1477440;40;20399;-80
2021/05/09 04:26:27;;;;;;;4.82;3.85;;;;;;;;;;1473096;40;20420;-80
2021/05/09 04:27:29;;;;;;;5.68;3.83;;;;;;;;;;1473639;40;21817;-80
2021/05/09 04:28:32;;;;;;;7.03;3.88;;;;;;;;;;1482834;40;20894;-80
2021/05/09 04:29:34;;;;;;;6.22;3.53;;;;;;;;;;1473480;40;20439;-80
2021/05/09 04:30:35;;;;;;;6.35;3.92;;;;;;;;;;1476258;40;20415;-80
2021/05/09 04:31:36;;;;;;;6.15;3.70;;;;;;;;;;1480018;40;20657;-80
2021/05/09 04:32:38;;;;;;;7.20;3.80;;;;;;;;;;1479296;40;20505;-80
2021/05/09 04:33:39;;;;;;;6.50;3.47;;;;;;;;;;1478688;40;20421;-81
2021/05/09 04:34:44;;;;;;;5.65;3.80;;;;;;;;;;1475739;40;20393;-81
2021/05/09 04:35:48;;;;;;;5.85;3.50;;;;;;;;;;1469463;40;20453;-80
2021/05/09 04:36:50;;;;;;;7.35;3.67;;;;;;;;;;1470578;40;20464;-80
2021/05/09 04:37:52;;;;;;;4.57;3.33;;;;;;;;;;1470167;40;20426;-80
2021/05/09 04:38:53;;;;;;;5.97;3.83;;;;;;;;;;1474791;40;20423;-80
2021/05/09 04:39:54;;;;;;;6.75;3.67;;;;;;;;;;1481701;40;20464;-81
2021/05/09 04:40:55;;;;;;;6.53;4.20;;;;;;;;;;1476038;40;20428;-80
2021/05/09 04:41:56;;;;;;;6.82;3.72;;;;;;;;;;1477550;40;20767;-80
2021/05/09 04:43:08;;;;;;;6.07;3.40;;;;;;;;;;1478929;40;20503;-80
2021/05/09 04:44:10;;;;;;;5.50;3.63;;;;;;;;;;1474162;40;20876;-79
2021/05/09 04:45:14;;;;;;;7.03;3.80;;;;;;;;;;1466452;40;20826;-80
2021/05/09 04:46:15;;;;;;;5.68;3.50;;;;;;;;;;1471783;40;20404;-80
2021/05/09 04:47:19;;;;;;;7.75;3.75;;;;;;;;;;1479083;40;20394;-80
2021/05/09 04:48:24;;;;;;;6.07;3.80;;;;;;;;;;1478853;40;20490;-80
2021/05/09 04:49:27;;;;;;;7.18;3.53;;;;;;;;;;1478800;40;20438;-80
2021/05/09 04:50:28;;;;;;;7.65;3.65;;;;;;;;;;1481670;40;20418;-81
2021/05/09 04:51:30;;;;;;;6.25;3.33;;;;;;;;;;1483917;40;20402;-80
2021/05/09 04:52:32;;;;;;;6.63;3.70;;;;;;;;;;1472410;40;20425;-78
2021/05/09 04:53:36;;;;;;;7.50;3.28;;;;;;;;;;1471571;40;20415;-81
2021/05/09 04:54:40;;;;;;;5.75;3.40;;;;;;;;;;1476513;40;20390;-81
2021/05/09 04:55:41;;;;;;;8.23;3.80;;;;;;;;;;1479262;40;20452;-81
2021/05/09 04:56:43;;;;;;;7.78;3.83;;;;;;;;;;1477409;40;20404;-81
2021/05/09 04:57:45;;;;;;;6.32;3.50;;;;;;;;;;1473225;40;20415;-80
2021/05/09 04:58:49;;;;;;;4.03;3.40;;;;;;;;;;1469711;40;20411;-80
2021/05/09 04:59:51;;;;;;;5.97;3.60;;;;;;;;;;1471269;40;20424;-79
2021/05/09 05:01:00;;;;;;;7.35;3.65;;;;;;;;;;1466479;40;20454;-80
2021/05/09 05:02:04;;;;;;;4.70;3.42;;;;;;;;;;1473290;40;20985;-80
2021/05/09 05:03:06;;;;;;;5.93;3.60;;;;;;;;;;1474632;40;20536;-80
2021/05/09 05:04:11;;;;;;;5.35;4.00;;;;;;;;;;1478150;40;20592;-80
2021/05/09 05:05:14;;;;;;;8.20;3.63;;;;;;;;;;1474825;40;20409;-80
2021/05/09 05:06:15;;;;;;;9.25;4.18;;;;;;;;;;1474221;40;20407;-80
2021/05/09 05:07:16;;;;;;;7.40;3.85;;;;;;;;;;1465941;40;20407;-80
2021/05/09 05:08:18;;;;;;;3.60;3.10;;;;;;;;;;1469984;40;20822;-80
2021/05/09 05:09:19;;;;;;;8.18;3.50;;;;;;;;;;1473880;40;20725;-79
2021/05/09 05:10:20;;;;;;;7.85;3.85;;;;;;;;;;1471556;40;20778;-79
2021/05/09 05:11:24;;;;;;;7.50;4.13;;;;;;;;;;1478013;40;20788;-80
2021/05/09 05:12:25;;;;;;;6.20;3.17;;;;;;;;;;1479746;40;20406;-80
2021/05/09 05:13:31;;;;;;;5.47;3.55;;;;;;;;;;1474088;40;20404;-80
2021/05/09 05:14:32;;;;;;;5.70;3.35;;;;;;;;;;1474462;40;20789;-80
2021/05/09 05:15:36;;;;;;;6.50;3.22;;;;;;;;;;1469520;40;20461;-79
2021/05/09 05:16:38;;;;;;;10.27;3.55;;;;;;;;;;1473024;40;20423;-79
2021/05/09 05:17:42;;;;;;;6.13;3.40;;;;;;;;;;1470232;40;20398;-81
2021/05/09 05:18:44;;;;;;;7.05;3.40;;;;;;;;;;1466241;40;20430;-81
2021/05/09 05:19:48;;;;;;;4.18;3.00;;;;;;;;;;1469658;40;20397;-80
2021/05/09 05:20:51;;;;;;;7.28;3.67;;;;;;;;;;1474008;40;20412;-80
2021/05/09 05:21:52;;;;;;;4.60;3.30;;;;;;;;;;1478366;40;20402;-80
2021/05/09 05:22:54;;;;;;;7.47;3.72;;;;;;;;;;1469595;40;20414;-79
2021/05/09 05:23:58;;;;;;;6.28;2.95;;;;;;;;;;1469521;40;20409;-80
2021/05/09 05:25:04;;;;;;;5.70;3.65;;;;;;;;;;1474212;40;20502;-80
2021/05/09 05:26:05;;;;;;;5.72;2.92;;;;;;;;;;1473634;40;20483;-80
2021/05/09 05:27:07;;;;;;;4.00;3.03;;;;;;;;;;1474022;40;20481;-79
2021/05/09 05:28:09;;;;;;;4.20;3.25;;;;;;;;;;1473177;40;20666;-79
2021/05/09 05:29:13;;;;;;;5.97;3.33;;;;;;;;;;1465514;40;20415;-79
2021/05/09 05:30:15;;;;;;;5.05;3.13;;;;;;;;;;1471026;40;20404;-79
2021/05/09 05:31:16;;;;;;;5.13;3.10;;;;;;;;;;1476450;40;20686;-80
2021/05/09 05:32:21;;;;;;;5.30;3.17;;;;;;;;;;1469392;40;20532;-79
2021/05/09 05:33:27;;;;;;;3.83;3.42;;;;;;;;;;1466149;40;20396;-79
2021/05/09 05:34:29;;;;;;;6.40;3.25;;;;;;;;;;1466447;40;20441;-80
2021/05/09 05:35:32;;;;;;;7.75;3.67;;;;;;;;;;1473870;40;20415;-79
2021/05/09 05:36:34;;;;;;;4.75;3.40;;;;;;;;;;1473638;40;20678;-79
2021/05/09 05:37:38;;;;;;;4.22;3.20;;;;;;;;;;1461433;40;20742;-79
2021/05/09 05:38:40;;;;;;;6.82;3.95;;;;;;;;;;1466517;40;20447;-80
2021/05/09 05:39:43;;;;;;;5.60;3.30;;;;;;;;;;1469622;40;20469;-80
2021/05/09 05:40:47;;;;;;;6.25;3.35;;;;;;;;;;1473248;40;20455;-81
2021/05/09 05:41:50;;;;;;;6.07;3.38;;;;;;;;;;1478333;40;20398;-80
2021/05/09 05:42:52;;;;;;;5.03;3.38;;;;;;;;;;1478160;40;20418;-80
2021/05/09 05:43:54;;;;;;;5.20;2.92;;;;;;;;;;1469719;40;20394;-79
2021/05/09 05:44:56;;;;;;;7.95;3.70;;;;;;;;;;1469937;40;20905;-80
2021/05/09 05:46:01;;;;;;;6.18;3.00;;;;;;;;;;1469385;40;20405;-80
2021/05/09 05:47:02;;;;;;;3.92;3.00;;;;;;;;;;1469850;40;20421;-79
2021/05/09 05:48:04;;;;;;;5.28;3.00;;;;;;;;;;1473698;40;20407;-80
2021/05/09 05:49:06;;;;;;;4.35;3.05;;;;;;;;;;1473725;40;20555;-79
2021/05/09 05:50:11;;;;;;;4.35;3.63;;;;;;;;;;1465621;40;20542;-79
2021/05/09 05:51:12;;;;;;;6.82;3.30;;;;;;;;;;1470291;40;20402;-80
2021/05/09 05:52:13;;;;;;;7.18;2.97;;;;;;;;;;1478230;40;20437;-79
2021/05/09 05:53:19;;;;;;;5.60;3.20;;;;;;;;;;1478179;40;20442;-79
2021/05/09 05:54:25;;;;;;;5.97;3.22;;;;;;;;;;1478641;40;20417;-79
2021/05/09 05:55:29;;;;;;;5.68;3.13;;;;;;;;;;1477094;40;20839;-79
2021/05/09 05:56:32;;;;;;;4.22;3.30;;;;;;;;;;1473803;40;20400;-80
2021/05/09 05:57:34;;;;;;;6.72;3.70;;;;;;;;;;1471137;40;20414;-80
2021/05/09 05:58:35;;;;;;;5.10;3.60;;;;;;;;;;1473367;40;20463;-81
2021/05/09 05:59:36;;;;;;;5.82;4.10;;;;;;;;;;1469599;40;20402;-80
2021/05/09 06:00:43;;;;;;;6.38;3.92;;;;;;;;;;1466078;40;20447;-80
2021/05/09 06:01:48;;;;;;;6.18;3.45;;;;;;;;;;1470182;40;20394;-81
2021/05/09 06:02:53;;;;;;;4.65;3.30;;;;;;;;;;1469979;40;20422;-80
2021/05/09 06:03:55;;;;;;;6.90;3.40;;;;;;;;;;1473766;40;21045;-80
2021/05/09 06:04:56;;;;;;;5.03;3.17;;;;;;;;;;1477768;40;20390;-80
2021/05/09 06:05:58;;;;;;;5.65;2.92;;;;;;;;;;1478386;40;20763;-80
2021/05/09 06:07:02;;;;;;;5.70;3.58;;;;;;;;;;1465526;40;20418;-80
2021/05/09 06:08:05;;;;;;;5.00;3.40;;;;;;;;;;1469922;40;20406;-80
2021/05/09 06:09:09;;;;;;;5.13;3.45;;;;;;;;;;1465192;40;20407;-79
2021/05/09 06:10:11;;;;;;;3.42;2.85;;;;;;;;;;1463032;40;20420;-79
2021/05/09 06:11:13;;;;;;;6.63;3.30;;;;;;;;;;1472894;40;20442;-80
2021/05/09 06:12:14;;;;;;;6.45;3.53;;;;;;;;;;1475328;40;20406;-80
2021/05/09 06:13:15;;;;;;;6.07;3.45;;;;;;;;;;1477920;40;20775;-79